createdAt,value
2023-01-12T00:01:40.295Z,98701.00
2023-01-12T00:04:07.875Z,98688.44
2023-01-12T00:06:34.830Z,98683.50
2023-01-12T00:09:02.781Z,98692.38
2023-01-12T00:11:29.977Z,98675.56
2023-01-12T00:13:57.462Z,98669.47
2023-01-12T00:16:37.419Z,98662.41
2023-01-12T00:19:15.700Z,98661.47
2023-01-12T00:21:59.270Z,98678.16
2023-01-12T00:24:30.153Z,98649.03
2023-01-12T00:26:58.729Z,98652.88
2023-01-12T00:29:26.419Z,98663.28
2023-01-12T00:31:54.584Z,98651.09
2023-01-12T00:34:22.338Z,98648.19
2023-01-12T00:36:49.683Z,98650.50
2023-01-12T00:39:17.090Z,98646.53
2023-01-12T00:42:02.610Z,98652.75
2023-01-12T00:44:48.480Z,98636.75
2023-01-12T00:47:15.868Z,98645.06
2023-01-12T00:49:43.179Z,98675.47
2023-01-12T00:52:29.458Z,98638.16
2023-01-12T00:54:57.729Z,98634.16
2023-01-12T00:57:24.491Z,98629.91
2023-01-12T00:59:54.906Z,98632.75
2023-01-12T01:02:22.263Z,98634.59
2023-01-12T01:04:50.488Z,98642.38
2023-01-12T01:07:18.292Z,98638.88
2023-01-12T01:09:45.102Z,98632.84
2023-01-12T01:12:11.849Z,98641.34
2023-01-12T01:14:38.757Z,98646.88
2023-01-12T01:17:05.674Z,98638.72
2023-01-12T01:19:32.415Z,98643.19
2023-01-12T01:21:59.292Z,98625.53
2023-01-12T01:24:26.093Z,98635.06
2023-01-12T01:26:52.848Z,98630.78
2023-01-12T01:29:19.650Z,98612.91
2023-01-12T01:31:47.697Z,98607.09
2023-01-12T01:34:15.156Z,98599.28
2023-01-12T01:36:41.917Z,98620.09
2023-01-12T01:39:08.828Z,98613.16
2023-01-12T01:41:35.582Z,98609.28
2023-01-12T01:44:05.215Z,98613.59
2023-01-12T01:46:53.712Z,98629.13
2023-01-12T01:49:41.700Z,98623.31
2023-01-12T01:52:14.894Z,98604.88
2023-01-12T01:54:48.193Z,98610.59
2023-01-12T01:57:15.829Z,98633.91
2023-01-12T01:59:48.841Z,98641.50
2023-01-12T02:02:16.199Z,98615.91
2023-01-12T02:04:43.163Z,98610.25
2023-01-12T02:07:10.262Z,98609.59
2023-01-12T02:09:37.226Z,98614.00
2023-01-12T02:12:23.910Z,98604.28
2023-01-12T02:15:10.341Z,98608.88
2023-01-12T02:18:01.737Z,98616.59
2023-01-12T02:20:50.367Z,98609.84
2023-01-12T02:23:23.271Z,98600.19
2023-01-12T02:26:11.268Z,98586.59
2023-01-12T02:28:52.814Z,98597.22
2023-01-12T02:31:30.863Z,98592.06
2023-01-12T02:34:30.114Z,98591.31
2023-01-12T02:37:11.755Z,98609.06
2023-01-12T02:39:50.437Z,98602.97
2023-01-12T02:43:00.124Z,98614.19
2023-01-12T02:45:48.517Z,98607.16
2023-01-12T02:48:28.554Z,98594.34
2023-01-12T02:51:14.625Z,98592.72
2023-01-12T02:53:44.819Z,98589.31
2023-01-12T02:56:22.287Z,98579.09
2023-01-12T02:58:54.010Z,98583.50
2023-01-12T03:01:23.846Z,98570.41
2023-01-12T03:03:51.932Z,98585.22
2023-01-12T03:06:18.850Z,98577.13
2023-01-12T03:08:49.075Z,98569.47
2023-01-12T03:11:21.737Z,98562.38
2023-01-12T03:13:54.197Z,98557.97
2023-01-12T03:16:25.383Z,98549.03
2023-01-12T03:19:09.833Z,98553.19
2023-01-12T03:21:42.251Z,98554.81
2023-01-12T03:24:12.978Z,98553.56
2023-01-12T03:26:46.213Z,98554.47
2023-01-12T03:29:28.499Z,98552.00
2023-01-12T03:31:56.815Z,98550.69
2023-01-12T03:34:23.874Z,98545.50
2023-01-12T03:37:15.099Z,98563.31
2023-01-12T03:39:41.734Z,98532.97
2023-01-12T03:42:15.523Z,98546.84
2023-01-12T03:45:19.786Z,98533.09
2023-01-12T03:47:50.416Z,98542.22
2023-01-12T03:50:22.112Z,98550.13
2023-01-12T03:52:50.544Z,98553.53
2023-01-12T03:55:22.765Z,98543.94
2023-01-12T03:57:51.063Z,98537.78
2023-01-12T04:00:20.457Z,98541.28
2023-01-12T04:02:49.673Z,98531.56
2023-01-12T04:05:16.662Z,98517.28
2023-01-12T04:07:43.282Z,98518.25
2023-01-12T04:10:10.426Z,98523.06
2023-01-12T04:12:37.094Z,98515.84
2023-01-12T04:15:03.997Z,98529.22
2023-01-12T04:17:30.691Z,98509.28
2023-01-12T04:19:57.320Z,98509.13
2023-01-12T04:22:42.486Z,98507.53
2023-01-12T04:25:19.160Z,98494.34
2023-01-12T04:27:53.501Z,98491.09
2023-01-12T04:30:23.370Z,98505.25
2023-01-12T04:32:50.876Z,98494.69
2023-01-12T04:35:17.791Z,98489.06
2023-01-12T04:37:44.944Z,98495.75
2023-01-12T04:40:14.430Z,98496.88
2023-01-12T04:43:08.678Z,98500.56
2023-01-12T04:45:41.457Z,98491.75
2023-01-12T04:48:11.076Z,98485.75
2023-01-12T04:50:39.234Z,98482.28
2023-01-12T04:53:07.841Z,98486.31
2023-01-12T04:55:37.453Z,98478.72
2023-01-12T04:58:04.706Z,98459.88
2023-01-12T05:00:31.546Z,98461.81
2023-01-12T05:03:02.086Z,98448.56
2023-01-12T05:05:31.040Z,98463.72
2023-01-12T05:08:20.707Z,98445.53
2023-01-12T05:10:54.842Z,98429.78
2023-01-12T05:13:22.354Z,98435.56
2023-01-12T05:15:49.012Z,98429.53
2023-01-12T05:18:15.871Z,98424.06
2023-01-12T05:20:42.578Z,98424.56
2023-01-12T05:23:09.395Z,98416.53
2023-01-12T05:25:36.039Z,98425.13
2023-01-12T05:28:02.937Z,98419.91
2023-01-12T05:30:31.716Z,98413.19
2023-01-12T05:32:59.213Z,98411.88
2023-01-12T05:35:25.908Z,98419.97
2023-01-12T05:37:55.752Z,98401.97
2023-01-12T05:40:22.471Z,98398.31
2023-01-12T05:43:10.670Z,98399.31
2023-01-12T05:45:37.504Z,98396.75
2023-01-12T05:48:04.452Z,98393.38
2023-01-12T05:50:31.131Z,98415.16
2023-01-12T05:53:10.538Z,98404.97
2023-01-12T05:55:38.240Z,98409.41
2023-01-12T05:58:04.949Z,98402.38
2023-01-12T06:00:31.735Z,98398.13
2023-01-12T06:02:58.392Z,98394.03
2023-01-12T06:05:25.095Z,98398.53
2023-01-12T06:07:51.768Z,98395.69
2023-01-12T06:10:18.502Z,98391.63
2023-01-12T06:13:03.933Z,98406.91
2023-01-12T06:15:32.449Z,98410.22
2023-01-12T06:17:59.151Z,98406.03
2023-01-12T06:20:25.795Z,98408.38
2023-01-12T06:22:52.483Z,98400.41
2023-01-12T06:25:19.138Z,98403.94
2023-01-12T06:27:45.744Z,98387.19
2023-01-12T06:30:13.046Z,98389.25
2023-01-12T06:32:41.518Z,98375.97
2023-01-12T06:35:18.526Z,98385.91
2023-01-12T06:37:45.992Z,98372.13
2023-01-12T06:40:13.180Z,98377.38
2023-01-12T06:42:42.064Z,98384.22
2023-01-12T06:45:09.800Z,98395.81
2023-01-12T06:47:45.153Z,98394.78
2023-01-12T06:50:13.086Z,98387.06
2023-01-12T06:52:39.732Z,98399.78
2023-01-12T06:55:06.726Z,98385.97
2023-01-12T06:57:33.423Z,98385.06
2023-01-12T07:00:00.083Z,98392.81
2023-01-12T07:02:26.843Z,98390.84
2023-01-12T07:04:53.597Z,98393.63
2023-01-12T07:07:20.260Z,98389.44
2023-01-12T07:09:46.893Z,98374.00
2023-01-12T07:12:13.759Z,98377.84
2023-01-12T07:14:40.401Z,98383.69
2023-01-12T07:17:07.187Z,98367.25
2023-01-12T07:19:34.101Z,98373.13
2023-01-12T07:22:00.722Z,98366.03
2023-01-12T07:24:27.343Z,98372.13
2023-01-12T07:26:54.066Z,98369.75
2023-01-12T07:29:20.717Z,98362.19
2023-01-12T07:31:49.008Z,98367.25
2023-01-12T07:34:15.816Z,98361.31
2023-01-12T07:36:42.782Z,98360.78
2023-01-12T07:39:10.647Z,98350.31
2023-01-12T07:41:55.919Z,98339.78
2023-01-12T07:44:23.010Z,98340.56
2023-01-12T07:46:49.673Z,98339.84
2023-01-12T07:49:16.337Z,98325.44
2023-01-12T07:51:43.079Z,98332.88
2023-01-12T07:54:09.921Z,98341.72
2023-01-12T07:56:36.740Z,98339.53
2023-01-12T07:59:03.418Z,98333.16
2023-01-12T08:01:32.483Z,98338.00
2023-01-12T08:03:59.185Z,98337.91
2023-01-12T08:06:25.878Z,98341.47
2023-01-12T08:08:54.346Z,98344.19
2023-01-12T08:11:22.833Z,98351.13
2023-01-12T08:13:54.996Z,98364.69
2023-01-12T08:16:27.516Z,98365.75
2023-01-12T08:18:58.945Z,98365.22
2023-01-12T08:21:30.280Z,98382.00
2023-01-12T08:24:00.473Z,98360.91
2023-01-12T08:26:37.939Z,98373.81
2023-01-12T08:29:13.167Z,98368.53
2023-01-12T08:31:40.650Z,98369.59
2023-01-12T08:34:09.772Z,98365.63
2023-01-12T08:36:38.437Z,98372.19
2023-01-12T08:39:05.208Z,98391.19
2023-01-12T08:41:36.541Z,98386.25
2023-01-12T08:44:10.826Z,98381.00
2023-01-12T08:46:39.515Z,98371.47
2023-01-12T08:49:11.381Z,98363.53
2023-01-12T08:51:40.822Z,98394.47
2023-01-12T08:54:09.944Z,98386.56
2023-01-12T08:56:37.050Z,98386.81
2023-01-12T08:59:04.523Z,98374.69
2023-01-12T09:01:31.304Z,98371.22
2023-01-12T09:03:58.960Z,98371.88
2023-01-12T09:06:28.410Z,98378.84
2023-01-12T09:08:57.458Z,98383.03
2023-01-12T09:11:25.010Z,98386.19
2023-01-12T09:13:51.965Z,98375.16
2023-01-12T09:16:20.570Z,98376.72
2023-01-12T09:18:47.883Z,98370.28
2023-01-12T09:21:17.151Z,98381.94
2023-01-12T09:23:45.456Z,98370.75
2023-01-12T09:26:19.102Z,98376.50
2023-01-12T09:28:46.512Z,98353.00
2023-01-12T09:31:19.079Z,98364.19
2023-01-12T09:33:46.571Z,98381.41
2023-01-12T09:36:22.104Z,98378.50
2023-01-12T09:38:49.719Z,98376.66
2023-01-12T09:41:55.762Z,98379.94
2023-01-12T09:44:52.828Z,98374.81
2023-01-12T09:47:56.192Z,98388.81
2023-01-12T09:50:44.103Z,98382.81
2023-01-12T09:53:20.383Z,98388.47
2023-01-12T09:56:02.564Z,98393.03
2023-01-12T09:58:34.875Z,98385.38
2023-01-12T10:01:14.640Z,98392.34
2023-01-12T10:03:44.301Z,98385.16
2023-01-12T10:06:16.872Z,98400.00
2023-01-12T10:08:49.430Z,98397.66
2023-01-12T10:11:22.271Z,98393.84
2023-01-12T10:14:10.547Z,98391.56
2023-01-12T10:16:57.200Z,98389.66
2023-01-12T10:19:54.322Z,98380.03
2023-01-12T10:22:39.523Z,98377.31
2023-01-12T10:25:30.729Z,98373.78
2023-01-12T10:27:59.555Z,98394.56
2023-01-12T10:30:32.197Z,98395.81
2023-01-12T10:33:22.753Z,98383.41
2023-01-12T10:36:04.615Z,98384.03
2023-01-12T10:38:34.556Z,98383.78
2023-01-12T10:41:10.226Z,98388.41
2023-01-12T10:43:37.619Z,98399.19
2023-01-12T10:46:08.721Z,98387.06
2023-01-12T10:48:36.528Z,98386.41
2023-01-12T10:51:06.060Z,98383.53
2023-01-12T10:53:53.545Z,98380.13
2023-01-12T10:56:36.627Z,98359.41
2023-01-12T10:59:26.305Z,98375.72
2023-01-12T11:02:12.907Z,98375.78
2023-01-12T11:04:44.326Z,98376.09
2023-01-12T11:07:15.488Z,98377.44
2023-01-12T11:09:43.787Z,98372.16
2023-01-12T11:12:24.336Z,98370.34
2023-01-12T11:15:01.020Z,98361.50
2023-01-12T11:17:57.014Z,98362.78
2023-01-12T11:20:39.734Z,98362.28
2023-01-12T11:23:21.123Z,98358.56
2023-01-12T11:25:51.247Z,98350.13
2023-01-12T11:28:22.169Z,98359.78
2023-01-12T11:30:56.983Z,98354.72
2023-01-12T11:33:30.199Z,98366.09
2023-01-12T11:36:06.394Z,98346.63
2023-01-12T11:38:42.550Z,98346.63
2023-01-12T11:41:25.369Z,98355.63
2023-01-12T11:44:32.189Z,98349.75
2023-01-12T11:47:13.055Z,98353.78
2023-01-12T11:49:51.528Z,98344.66
2023-01-12T11:52:18.592Z,98341.31
2023-01-12T11:54:45.407Z,98333.28
2023-01-12T11:57:41.325Z,98320.16
2023-01-12T12:00:37.402Z,98335.72
2023-01-12T12:03:19.211Z,98320.22
2023-01-12T12:05:52.001Z,98324.53
2023-01-12T12:08:30.975Z,98318.72
2023-01-12T12:10:57.924Z,98335.59
2023-01-12T12:13:38.876Z,98326.94
2023-01-12T12:16:31.285Z,98320.53
2023-01-12T12:19:00.817Z,98319.00
2023-01-12T12:21:30.332Z,98321.09
2023-01-12T12:24:02.370Z,98312.84
2023-01-12T12:26:38.930Z,98298.94
2023-01-12T12:29:41.228Z,98296.69
2023-01-12T12:32:23.488Z,98305.81
2023-01-12T12:34:58.836Z,98311.44
2023-01-12T12:37:44.315Z,98318.47
2023-01-12T12:40:32.219Z,98292.13
2023-01-12T12:43:32.845Z,98295.47
2023-01-12T12:46:13.058Z,98292.63
2023-01-12T12:48:52.685Z,98287.09
2023-01-12T12:51:20.651Z,98289.66
2023-01-12T12:53:52.245Z,98286.75
2023-01-12T12:56:22.478Z,98281.44
2023-01-12T12:58:54.262Z,98279.81
2023-01-12T13:01:21.119Z,98272.75
2023-01-12T13:03:52.789Z,98286.84
2023-01-12T13:06:28.248Z,98275.47
2023-01-12T13:08:58.792Z,98284.97
2023-01-12T13:12:08.446Z,98288.53
2023-01-12T13:14:42.866Z,98272.59
2023-01-12T13:17:18.775Z,98267.44
2023-01-12T13:19:49.656Z,98266.72
2023-01-12T13:22:32.234Z,98273.00
2023-01-12T13:25:11.019Z,98271.50
2023-01-12T13:28:03.057Z,98267.88
2023-01-12T13:30:29.755Z,98270.81
2023-01-12T13:33:14.781Z,98271.84
2023-01-12T13:35:44.331Z,98264.66
2023-01-12T13:38:19.181Z,98273.16
2023-01-12T13:40:56.152Z,98251.44
2023-01-12T13:43:28.961Z,98274.78
2023-01-12T13:46:00.901Z,98261.53
2023-01-12T13:48:29.384Z,98257.59
2023-01-12T13:50:59.952Z,98265.91
2023-01-12T13:53:30.395Z,98259.97
2023-01-12T13:56:05.726Z,98246.56
2023-01-12T13:58:42.896Z,98250.88
2023-01-12T14:01:29.125Z,98263.31
2023-01-12T14:04:02.164Z,98250.75
2023-01-12T14:06:48.186Z,98253.97
2023-01-12T14:09:33.232Z,98256.53
2023-01-12T14:12:27.850Z,98255.22
2023-01-12T14:15:35.280Z,98246.69
2023-01-12T14:18:15.147Z,98254.78
2023-01-12T14:20:48.067Z,98242.56
2023-01-12T14:23:16.474Z,98246.84
2023-01-12T14:25:44.685Z,98246.94
2023-01-12T14:28:23.249Z,98240.81
2023-01-12T14:30:54.237Z,98243.59
2023-01-12T14:33:25.827Z,98232.38
2023-01-12T14:35:56.034Z,98226.53
2023-01-12T14:38:26.337Z,98227.28
2023-01-12T14:41:00.425Z,98222.25
2023-01-12T14:43:49.681Z,98217.13
2023-01-12T14:46:29.674Z,98216.31
2023-01-12T14:49:02.134Z,98222.50
2023-01-12T14:51:36.317Z,98212.25
2023-01-12T14:54:06.301Z,98224.00
2023-01-12T14:56:33.019Z,98217.38
2023-01-12T14:59:09.332Z,98200.72
2023-01-12T15:01:38.106Z,98217.69
2023-01-12T15:04:07.041Z,98213.34
2023-01-12T15:06:42.266Z,98208.44
2023-01-12T15:09:33.231Z,98209.63
2023-01-12T15:12:19.878Z,98221.16
2023-01-12T15:14:46.614Z,98224.63
2023-01-12T15:17:32.027Z,98207.09
2023-01-12T15:20:17.303Z,98222.41
2023-01-12T15:23:02.746Z,98211.03
2023-01-12T15:25:39.058Z,98212.09
2023-01-12T15:28:07.317Z,98215.69
2023-01-12T15:30:37.657Z,98207.41
2023-01-12T15:33:05.215Z,98212.56
2023-01-12T15:35:32.594Z,98204.25
2023-01-12T15:37:59.552Z,98213.38
2023-01-12T15:40:27.538Z,98194.69
2023-01-12T15:42:54.446Z,98207.50
2023-01-12T15:45:37.405Z,98205.56
2023-01-12T15:48:05.773Z,98216.28
2023-01-12T15:50:41.330Z,98198.00
2023-01-12T15:53:27.582Z,98199.38
2023-01-12T15:55:54.535Z,98203.19
2023-01-12T15:58:21.251Z,98200.09
2023-01-12T16:00:48.025Z,98191.19
2023-01-12T16:03:38.274Z,98192.19
2023-01-12T16:06:01.627Z,98194.66
2023-01-12T16:08:28.250Z,98197.56
2023-01-12T16:11:11.892Z,98193.78
2023-01-12T16:13:38.992Z,98202.25
2023-01-12T16:16:06.193Z,98181.38
2023-01-12T16:18:33.354Z,98189.91
2023-01-12T16:21:01.475Z,98171.53
2023-01-12T16:23:28.535Z,98171.78
2023-01-12T16:25:59.384Z,98177.63
2023-01-12T16:28:26.884Z,98162.66
2023-01-12T16:30:54.943Z,98186.69
2023-01-12T16:33:22.462Z,98174.88
2023-01-12T16:35:49.273Z,98174.09
2023-01-12T16:38:18.316Z,98173.47
2023-01-12T16:40:45.133Z,98177.13
2023-01-12T16:43:12.068Z,98187.47
2023-01-12T16:45:42.423Z,98185.31
2023-01-12T16:48:09.275Z,98187.97
2023-01-12T16:50:39.739Z,98179.34
2023-01-12T16:53:07.491Z,98186.94
2023-01-12T16:55:36.084Z,98185.84
2023-01-12T16:58:05.376Z,98178.47
2023-01-12T17:00:33.352Z,98172.41
2023-01-12T17:03:02.490Z,98164.19
2023-01-12T17:05:30.184Z,98166.06
2023-01-12T17:07:57.321Z,98161.75
2023-01-12T17:10:24.499Z,98158.53
2023-01-12T17:12:57.808Z,98171.84
2023-01-12T17:15:28.897Z,98161.94
2023-01-12T17:17:56.239Z,98171.44
2023-01-12T17:20:23.076Z,98166.56
2023-01-12T17:22:50.660Z,98157.16
2023-01-12T17:25:17.597Z,98160.13
2023-01-12T17:27:44.398Z,98167.91
2023-01-12T17:30:11.566Z,98156.81
2023-01-12T17:32:39.375Z,98146.66
2023-01-12T17:35:09.242Z,98149.63
2023-01-12T17:37:36.560Z,98139.00
2023-01-12T17:40:04.122Z,98132.59
2023-01-12T17:42:49.259Z,98138.75
2023-01-12T17:45:16.109Z,98144.78
2023-01-12T17:47:42.748Z,98138.06
2023-01-12T17:50:10.304Z,98136.00
2023-01-12T17:52:37.002Z,98140.78
2023-01-12T17:55:04.030Z,98135.84
2023-01-12T17:57:31.498Z,98151.50
2023-01-12T17:59:58.571Z,98132.25
2023-01-12T18:02:25.416Z,98138.88
2023-01-12T18:04:52.297Z,98136.50
2023-01-12T18:07:19.483Z,98133.53
2023-01-12T18:09:46.185Z,98137.56
2023-01-12T18:12:12.998Z,98141.59
2023-01-12T18:14:39.674Z,98141.59
2023-01-12T18:17:06.389Z,98135.22
2023-01-12T18:19:33.388Z,98138.84
2023-01-12T18:22:05.844Z,98143.66
2023-01-12T18:24:34.367Z,98139.69
2023-01-12T18:27:01.134Z,98145.50
2023-01-12T18:29:28.178Z,98150.38
2023-01-12T18:31:54.839Z,98138.31
2023-01-12T18:34:21.448Z,98137.47
2023-01-12T18:36:48.069Z,98153.59
2023-01-12T18:39:20.757Z,98139.31
2023-01-12T18:42:07.748Z,98148.16
2023-01-12T18:44:35.400Z,98144.03
2023-01-12T18:47:21.535Z,98157.50
2023-01-12T18:49:51.654Z,98155.28
2023-01-12T18:52:37.048Z,98146.25
2023-01-12T18:55:05.265Z,98156.03
2023-01-12T18:57:32.726Z,98149.31
2023-01-12T19:00:19.727Z,98129.63
2023-01-12T19:02:46.941Z,98125.66
2023-01-12T19:05:24.004Z,98129.06
2023-01-12T19:07:50.849Z,98118.19
2023-01-12T19:10:18.106Z,98114.41
2023-01-12T19:12:45.928Z,98113.94
2023-01-12T19:15:31.959Z,98105.94
2023-01-12T19:17:58.690Z,98104.06
2023-01-12T19:20:30.051Z,98110.03
2023-01-12T19:23:15.313Z,98113.47
2023-01-12T19:26:14.065Z,98101.13
2023-01-12T19:28:40.940Z,98097.44
2023-01-12T19:31:10.917Z,98093.66
2023-01-12T19:33:44.891Z,98095.41
2023-01-12T19:36:16.328Z,98092.81
2023-01-12T19:38:45.622Z,98091.91
2023-01-12T19:41:14.411Z,98093.41
2023-01-12T19:43:45.305Z,98100.19
2023-01-12T19:46:13.064Z,98094.13
2023-01-12T19:48:39.788Z,98079.38
2023-01-12T19:51:10.441Z,98087.00
2023-01-12T19:53:38.947Z,98086.00
2023-01-12T19:56:10.430Z,98071.88
2023-01-12T19:58:37.372Z,98078.81
2023-01-12T20:01:04.595Z,98069.25
2023-01-12T20:03:31.758Z,98071.28
2023-01-12T20:05:58.473Z,98075.84
2023-01-12T20:08:25.766Z,98084.94
2023-01-12T20:10:57.980Z,98072.34
2023-01-12T20:13:25.100Z,98088.78
2023-01-12T20:15:52.941Z,98086.00
2023-01-12T20:18:19.820Z,98076.53
2023-01-12T20:20:46.601Z,98071.16
2023-01-12T20:23:14.878Z,98080.00
2023-01-12T20:25:42.571Z,98074.91
2023-01-12T20:28:12.002Z,98069.41
2023-01-12T20:30:41.286Z,98073.53
2023-01-12T20:33:08.756Z,98062.75
2023-01-12T20:35:38.429Z,98093.88
2023-01-12T20:38:06.840Z,98086.78
2023-01-12T20:40:34.014Z,98050.28
2023-01-12T20:43:00.800Z,98062.44
2023-01-12T20:45:27.574Z,98063.31
2023-01-12T20:47:55.635Z,98063.91
2023-01-12T20:50:23.254Z,98059.88
2023-01-12T20:52:50.972Z,98065.38
2023-01-12T20:55:17.762Z,98062.34
2023-01-12T20:57:44.619Z,98068.28
2023-01-12T21:00:12.612Z,98060.00
2023-01-12T21:02:40.531Z,98051.09
2023-01-12T21:05:08.924Z,98048.03
2023-01-12T21:07:35.840Z,98054.53
2023-01-12T21:10:02.650Z,98041.06
2023-01-12T21:12:29.463Z,98052.78
2023-01-12T21:14:56.130Z,98049.16
2023-01-12T21:17:23.019Z,98045.84
2023-01-12T21:19:49.641Z,98042.72
2023-01-12T21:22:16.547Z,98032.97
2023-01-12T21:24:43.184Z,98044.34
2023-01-12T21:27:09.900Z,98028.78
2023-01-12T21:29:36.521Z,98029.00
2023-01-12T21:32:03.505Z,98036.84
2023-01-12T21:34:30.212Z,98037.34
2023-01-12T21:36:57.081Z,98028.97
2023-01-12T21:39:23.762Z,98039.19
2023-01-12T21:42:09.218Z,98019.59
2023-01-12T21:44:35.932Z,98033.50
2023-01-12T21:47:02.614Z,98025.00
2023-01-12T21:49:29.370Z,98028.91
2023-01-12T21:51:56.133Z,98025.09
2023-01-12T21:54:22.838Z,98025.66
2023-01-12T21:56:49.703Z,98039.25
2023-01-12T21:59:16.413Z,98029.50
2023-01-12T22:01:43.116Z,98034.00
2023-01-12T22:04:10.106Z,98038.09
2023-01-12T22:06:37.109Z,98023.63
2023-01-12T22:09:03.921Z,98031.44
2023-01-12T22:11:30.621Z,98026.97
2023-01-12T22:13:57.323Z,98019.78
2023-01-12T22:16:24.204Z,98024.66
2023-01-12T22:18:51.263Z,98010.56
2023-01-12T22:21:20.421Z,98016.78
2023-01-12T22:23:47.804Z,98030.50
2023-01-12T22:26:16.219Z,98011.72
2023-01-12T22:28:45.151Z,98013.66
2023-01-12T22:31:20.197Z,98023.81
2023-01-12T22:33:54.817Z,98013.63
2023-01-12T22:36:21.708Z,98003.06
2023-01-12T22:38:49.452Z,98005.22
2023-01-12T22:41:19.327Z,98030.94
2023-01-12T22:43:48.381Z,98014.41
2023-01-12T22:46:17.253Z,98018.78
2023-01-12T22:48:44.077Z,98017.84
2023-01-12T22:51:11.010Z,98004.66
2023-01-12T22:53:37.750Z,98003.25
2023-01-12T22:56:05.323Z,98004.63
2023-01-12T22:58:32.407Z,98015.84
2023-01-12T23:01:07.419Z,97998.78
2023-01-12T23:03:35.552Z,98002.78
2023-01-12T23:06:03.717Z,97989.88
2023-01-12T23:08:30.407Z,97997.09
2023-01-12T23:11:13.773Z,97987.78
2023-01-12T23:13:42.153Z,97990.44
2023-01-12T23:16:10.733Z,97989.66
2023-01-12T23:18:38.808Z,97996.13
2023-01-12T23:21:16.041Z,98005.72
2023-01-12T23:23:58.981Z,97998.97
2023-01-12T23:26:30.756Z,97993.00
2023-01-12T23:29:00.212Z,97988.56
2023-01-12T23:31:29.895Z,97998.28
2023-01-12T23:33:57.315Z,97985.13
2023-01-12T23:36:26.509Z,97983.19
2023-01-12T23:38:58.400Z,97989.56
2023-01-12T23:41:27.487Z,97996.91
2023-01-12T23:44:02.222Z,97968.16
2023-01-12T23:46:30.580Z,97974.56
2023-01-12T23:48:57.652Z,97969.34
2023-01-12T23:51:26.404Z,97964.69
2023-01-12T23:53:59.098Z,97962.69
2023-01-12T23:56:31.445Z,97947.75
2023-01-12T23:58:58.229Z,97952.09
